Estación de Purranque

Ultimos registro cada 15 minutos 32
Estación Fecha / Hora Temperatura Humedad Lluvia Velocidad Dirección Radiación Presion
32 Purranque 10-05-2026 07:45 1,9 98,8 0 0,3 222 3,1 1012,1
31 Purranque 10-05-2026 07:30 2,5 98,2 0 0 222 0,6 1012,1
30 Purranque 10-05-2026 07:15 3,8 98,4 0 0,3 216 0,6 1012,2
29 Purranque 10-05-2026 07:00 3,1 97,6 0 0 211 0,6 1012,5
28 Purranque 10-05-2026 06:45 3,8 96,8 0 0,7 213 0,6 1012,5
27 Purranque 10-05-2026 06:30 3,9 97,4 0 1 232 0,6 1012,5
26 Purranque 10-05-2026 06:15 3,9 98,2 0 0,7 220 0,6 1012,5
25 Purranque 10-05-2026 06:00 4 99 0 0,7 216 0,6 1012,4
24 Purranque 10-05-2026 05:45 3,7 98,5 0 1,3 212 0,6 1012,4
23 Purranque 10-05-2026 05:30 2,5 99,4 0 0,7 218 0,6 1012,2
22 Purranque 10-05-2026 05:15 3,3 98,8 0 1 213 0,6 1012,1
21 Purranque 10-05-2026 05:00 4 99,8 0 0,7 213 0,6 1012,2
20 Purranque 10-05-2026 04:45 3,5 99,3 0 0,7 206 0,6 1012,2
19 Purranque 10-05-2026 04:30 4 99,7 0 1 212 0,6 1012,3
18 Purranque 10-05-2026 04:15 3,4 100 0 1 222 0,6 1012,4
17 Purranque 10-05-2026 04:00 4,2 100 0 1 209 0,6 1012,4
16 Purranque 10-05-2026 03:45 2,8 100 0 1 218 0,6 1012,5
15 Purranque 10-05-2026 03:30 2,8 100 0 1 215 0,6 1012,4
14 Purranque 10-05-2026 03:15 3,2 100 0 0,7 209 0,6 1012,6
13 Purranque 10-05-2026 03:00 2,8 100 0 1 218 0,6 1012,7
12 Purranque 10-05-2026 02:45 3,1 100 0 1 216 0,6 1012,7
11 Purranque 10-05-2026 02:30 3,1 100 0 0,3 201 0,6 1012,8
10 Purranque 10-05-2026 02:15 2 100 0 0 166 0,6 1012,8
9 Purranque 10-05-2026 02:00 1,8 100 0 0,3 160 0,6 1012,8
8 Purranque 10-05-2026 01:45 1,6 100 0 0,7 167 0,6 1012,7
7 Purranque 10-05-2026 01:30 1,7 100 0 0,3 195 0,6 1012,8
6 Purranque 10-05-2026 01:15 0,9 99,7 0 0 225 0,6 1012,8
5 Purranque 10-05-2026 01:00 0,7 99,2 0 0 225 0,6 1012,9
4 Purranque 10-05-2026 00:45 0,9 98,6 0 0 225 0,6 1013,1
3 Purranque 10-05-2026 00:30 1,7 99,2 0 0 225 0,6 1013,1
2 Purranque 10-05-2026 00:15 2,1 99,1 0 0 218 0,6 1013,4
1 Purranque 10-05-2026 00:00 0,9 98,8 0 0 206 0,6 1013,6